sensor_id;sensor_type;location;lat;lon;timestamp;P1;durP1;ratioP1;P2;durP2;ratioP2
12593;SDS011;6362;50.208;9.182;2024-01-07T00:01:22;13.73;;;7.10;;
12593;SDS011;6362;50.208;9.182;2024-01-07T00:03:48;11.27;;;6.93;;
12593;SDS011;6362;50.208;9.182;2024-01-07T00:06:13;15.10;;;8.85;;
12593;SDS011;6362;50.208;9.182;2024-01-07T00:08:39;13.35;;;7.60;;
12593;SDS011;6362;50.208;9.182;2024-01-07T00:11:04;13.45;;;7.65;;
12593;SDS011;6362;50.208;9.182;2024-01-07T00:13:30;12.48;;;7.63;;
12593;SDS011;6362;50.208;9.182;2024-01-07T00:15:55;13.68;;;7.55;;
12593;SDS011;6362;50.208;9.182;2024-01-07T00:18:21;12.20;;;7.32;;
12593;SDS011;6362;50.208;9.182;2024-01-07T00:20:47;12.55;;;7.28;;
12593;SDS011;6362;50.208;9.182;2024-01-07T00:23:13;13.15;;;7.47;;
12593;SDS011;6362;50.208;9.182;2024-01-07T00:25:38;13.85;;;7.40;;
12593;SDS011;6362;50.208;9.182;2024-01-07T00:28:03;10.32;;;6.85;;
12593;SDS011;6362;50.208;9.182;2024-01-07T00:30:29;13.63;;;6.80;;
12593;SDS011;6362;50.208;9.182;2024-01-07T00:32:55;11.13;;;6.25;;
12593;SDS011;6362;50.208;9.182;2024-01-07T00:35:20;10.38;;;5.72;;
12593;SDS011;6362;50.208;9.182;2024-01-07T00:37:45;8.57;;;4.47;;
12593;SDS011;6362;50.208;9.182;2024-01-07T00:40:11;5.18;;;3.40;;
12593;SDS011;6362;50.208;9.182;2024-01-07T00:42:37;7.47;;;3.72;;
12593;SDS011;6362;50.208;9.182;2024-01-07T00:45:02;5.18;;;2.95;;
12593;SDS011;6362;50.208;9.182;2024-01-07T00:47:28;5.25;;;2.67;;
12593;SDS011;6362;50.208;9.182;2024-01-07T00:49:53;4.35;;;2.97;;
12593;SDS011;6362;50.208;9.182;2024-01-07T00:52:19;4.90;;;2.85;;
12593;SDS011;6362;50.208;9.182;2024-01-07T00:54:46;3.40;;;2.03;;
12593;SDS011;6362;50.208;9.182;2024-01-07T00:57:11;4.55;;;2.28;;
12593;SDS011;6362;50.208;9.182;2024-01-07T00:59:37;3.10;;;1.90;;
12593;SDS011;6362;50.208;9.182;2024-01-07T01:02:03;3.03;;;2.30;;
12593;SDS011;6362;50.208;9.182;2024-01-07T01:04:28;2.65;;;2.00;;
12593;SDS011;6362;50.208;9.182;2024-01-07T01:06:54;2.88;;;2.10;;
12593;SDS011;6362;50.208;9.182;2024-01-07T01:09:19;4.05;;;2.65;;
12593;SDS011;6362;50.208;9.182;2024-01-07T01:11:45;3.83;;;2.58;;
12593;SDS011;6362;50.208;9.182;2024-01-07T01:14:10;4.07;;;2.35;;
12593;SDS011;6362;50.208;9.182;2024-01-07T01:16:36;3.50;;;2.08;;
12593;SDS011;6362;50.208;9.182;2024-01-07T01:19:01;4.50;;;2.80;;
12593;SDS011;6362;50.208;9.182;2024-01-07T01:21:27;4.53;;;2.78;;
12593;SDS011;6362;50.208;9.182;2024-01-07T01:23:52;5.90;;;3.72;;
12593;SDS011;6362;50.208;9.182;2024-01-07T01:26:19;4.03;;;3.03;;
12593;SDS011;6362;50.208;9.182;2024-01-07T01:28:44;7.25;;;3.05;;
12593;SDS011;6362;50.208;9.182;2024-01-07T01:31:13;5.55;;;2.95;;
12593;SDS011;6362;50.208;9.182;2024-01-07T01:33:39;7.95;;;3.30;;
12593;SDS011;6362;50.208;9.182;2024-01-07T01:36:05;9.52;;;3.80;;
12593;SDS011;6362;50.208;9.182;2024-01-07T01:38:31;7.97;;;4.32;;
12593;SDS011;6362;50.208;9.182;2024-01-07T01:40:57;6.18;;;3.75;;
12593;SDS011;6362;50.208;9.182;2024-01-07T01:43:25;7.47;;;3.55;;
12593;SDS011;6362;50.208;9.182;2024-01-07T01:45:53;9.77;;;4.45;;
12593;SDS011;6362;50.208;9.182;2024-01-07T01:48:19;8.20;;;4.68;;
12593;SDS011;6362;50.208;9.182;2024-01-07T01:50:45;7.75;;;4.53;;
12593;SDS011;6362;50.208;9.182;2024-01-07T01:53:12;7.85;;;4.00;;
12593;SDS011;6362;50.208;9.182;2024-01-07T01:55:37;8.75;;;4.65;;
12593;SDS011;6362;50.208;9.182;2024-01-07T01:58:03;8.20;;;4.13;;
12593;SDS011;6362;50.208;9.182;2024-01-07T02:00:29;6.85;;;3.47;;
12593;SDS011;6362;50.208;9.182;2024-01-07T02:02:55;7.60;;;3.58;;
12593;SDS011;6362;50.208;9.182;2024-01-07T02:05:21;9.35;;;4.80;;
12593;SDS011;6362;50.208;9.182;2024-01-07T02:07:47;7.03;;;3.97;;
12593;SDS011;6362;50.208;9.182;2024-01-07T02:10:13;8.30;;;5.22;;
12593;SDS011;6362;50.208;9.182;2024-01-07T02:12:39;12.35;;;5.45;;
12593;SDS011;6362;50.208;9.182;2024-01-07T02:15:04;9.40;;;5.03;;
12593;SDS011;6362;50.208;9.182;2024-01-07T02:17:30;9.63;;;5.20;;
12593;SDS011;6362;50.208;9.182;2024-01-07T02:19:56;13.27;;;6.13;;
12593;SDS011;6362;50.208;9.182;2024-01-07T02:22:22;8.93;;;5.60;;
12593;SDS011;6362;50.208;9.182;2024-01-07T02:24:47;13.30;;;5.53;;
12593;SDS011;6362;50.208;9.182;2024-01-07T02:27:13;11.13;;;5.22;;
12593;SDS011;6362;50.208;9.182;2024-01-07T02:29:38;10.98;;;5.43;;
12593;SDS011;6362;50.208;9.182;2024-01-07T02:32:04;10.23;;;5.63;;
12593;SDS011;6362;50.208;9.182;2024-01-07T02:34:30;9.93;;;5.68;;
12593;SDS011;6362;50.208;9.182;2024-01-07T02:36:55;12.30;;;6.90;;
12593;SDS011;6362;50.208;9.182;2024-01-07T02:39:21;15.65;;;7.20;;
12593;SDS011;6362;50.208;9.182;2024-01-07T02:41:46;15.98;;;7.28;;
12593;SDS011;6362;50.208;9.182;2024-01-07T02:44:12;13.90;;;8.10;;
12593;SDS011;6362;50.208;9.182;2024-01-07T02:46:38;13.80;;;8.63;;
12593;SDS011;6362;50.208;9.182;2024-01-07T02:49:03;16.58;;;8.50;;
12593;SDS011;6362;50.208;9.182;2024-01-07T02:51:29;18.05;;;9.77;;
12593;SDS011;6362;50.208;9.182;2024-01-07T02:53:54;16.75;;;10.45;;
12593;SDS011;6362;50.208;9.182;2024-01-07T02:56:19;17.67;;;9.30;;
12593;SDS011;6362;50.208;9.182;2024-01-07T02:58:45;17.00;;;9.93;;
12593;SDS011;6362;50.208;9.182;2024-01-07T03:01:10;15.02;;;9.13;;
12593;SDS011;6362;50.208;9.182;2024-01-07T03:03:36;15.38;;;9.02;;
12593;SDS011;6362;50.208;9.182;2024-01-07T03:06:02;16.35;;;9.70;;
12593;SDS011;6362;50.208;9.182;2024-01-07T03:08:28;14.65;;;9.20;;
12593;SDS011;6362;50.208;9.182;2024-01-07T03:10:53;16.30;;;9.80;;
12593;SDS011;6362;50.208;9.182;2024-01-07T03:13:19;17.50;;;9.75;;
12593;SDS011;6362;50.208;9.182;2024-01-07T03:15:44;14.35;;;8.48;;
12593;SDS011;6362;50.208;9.182;2024-01-07T03:18:10;17.10;;;9.48;;
12593;SDS011;6362;50.208;9.182;2024-01-07T03:20:35;15.05;;;9.38;;
12593;SDS011;6362;50.208;9.182;2024-01-07T03:23:01;19.13;;;11.65;;
12593;SDS011;6362;50.208;9.182;2024-01-07T03:25:26;15.38;;;9.52;;
12593;SDS011;6362;50.208;9.182;2024-01-07T03:27:52;18.98;;;10.48;;
12593;SDS011;6362;50.208;9.182;2024-01-07T03:30:17;15.15;;;9.38;;
12593;SDS011;6362;50.208;9.182;2024-01-07T03:32:43;18.58;;;10.30;;
12593;SDS011;6362;50.208;9.182;2024-01-07T03:35:08;16.58;;;9.60;;
12593;SDS011;6362;50.208;9.182;2024-01-07T03:37:34;18.80;;;10.73;;
12593;SDS011;6362;50.208;9.182;2024-01-07T03:40:00;16.25;;;9.10;;
12593;SDS011;6362;50.208;9.182;2024-01-07T03:42:26;17.05;;;9.43;;
12593;SDS011;6362;50.208;9.182;2024-01-07T03:44:51;16.77;;;9.13;;
12593;SDS011;6362;50.208;9.182;2024-01-07T03:47:17;17.50;;;9.82;;
12593;SDS011;6362;50.208;9.182;2024-01-07T03:49:42;18.70;;;9.95;;
12593;SDS011;6362;50.208;9.182;2024-01-07T03:52:08;19.23;;;11.10;;
12593;SDS011;6362;50.208;9.182;2024-01-07T03:54:33;16.13;;;9.90;;
12593;SDS011;6362;50.208;9.182;2024-01-07T03:56:59;16.20;;;9.50;;
12593;SDS011;6362;50.208;9.182;2024-01-07T03:59:25;16.23;;;9.50;;
12593;SDS011;6362;50.208;9.182;2024-01-07T04:01:50;18.55;;;9.57;;
12593;SDS011;6362;50.208;9.182;2024-01-07T04:04:18;18.63;;;11.02;;
12593;SDS011;6362;50.208;9.182;2024-01-07T04:06:43;16.05;;;8.57;;
12593;SDS011;6362;50.208;9.182;2024-01-07T04:09:09;15.07;;;8.95;;
12593;SDS011;6362;50.208;9.182;2024-01-07T04:11:41;17.58;;;9.40;;
12593;SDS011;6362;50.208;9.182;2024-01-07T04:14:07;16.02;;;8.52;;
12593;SDS011;6362;50.208;9.182;2024-01-07T04:16:33;16.83;;;8.35;;
12593;SDS011;6362;50.208;9.182;2024-01-07T04:18:59;16.65;;;9.38;;
12593;SDS011;6362;50.208;9.182;2024-01-07T04:21:24;14.82;;;8.80;;
12593;SDS011;6362;50.208;9.182;2024-01-07T04:23:50;13.60;;;7.72;;
12593;SDS011;6362;50.208;9.182;2024-01-07T04:26:15;14.00;;;7.93;;
12593;SDS011;6362;50.208;9.182;2024-01-07T04:28:41;12.43;;;7.40;;
12593;SDS011;6362;50.208;9.182;2024-01-07T04:31:07;15.45;;;8.43;;
12593;SDS011;6362;50.208;9.182;2024-01-07T04:33:33;12.50;;;7.70;;
12593;SDS011;6362;50.208;9.182;2024-01-07T04:35:58;12.20;;;7.22;;
12593;SDS011;6362;50.208;9.182;2024-01-07T04:38:25;11.23;;;6.75;;
12593;SDS011;6362;50.208;9.182;2024-01-07T04:40:51;13.68;;;7.03;;
12593;SDS011;6362;50.208;9.182;2024-01-07T04:43:17;12.52;;;6.53;;
12593;SDS011;6362;50.208;9.182;2024-01-07T04:45:43;12.73;;;6.00;;
12593;SDS011;6362;50.208;9.182;2024-01-07T04:48:09;9.13;;;5.47;;
12593;SDS011;6362;50.208;9.182;2024-01-07T04:50:34;11.60;;;6.53;;
12593;SDS011;6362;50.208;9.182;2024-01-07T04:52:59;10.15;;;5.72;;
12593;SDS011;6362;50.208;9.182;2024-01-07T04:55:25;10.30;;;5.93;;
12593;SDS011;6362;50.208;9.182;2024-01-07T04:57:50;10.40;;;6.45;;
12593;SDS011;6362;50.208;9.182;2024-01-07T05:00:16;10.50;;;6.38;;
12593;SDS011;6362;50.208;9.182;2024-01-07T05:02:42;11.52;;;6.45;;
12593;SDS011;6362;50.208;9.182;2024-01-07T05:05:07;9.90;;;6.00;;
12593;SDS011;6362;50.208;9.182;2024-01-07T05:07:34;11.40;;;6.28;;
12593;SDS011;6362;50.208;9.182;2024-01-07T05:09:59;8.73;;;5.43;;
12593;SDS011;6362;50.208;9.182;2024-01-07T05:12:25;12.00;;;7.00;;
12593;SDS011;6362;50.208;9.182;2024-01-07T05:14:51;11.38;;;7.07;;
12593;SDS011;6362;50.208;9.182;2024-01-07T05:17:17;10.48;;;6.28;;
12593;SDS011;6362;50.208;9.182;2024-01-07T05:19:42;12.73;;;6.38;;
12593;SDS011;6362;50.208;9.182;2024-01-07T05:22:08;13.35;;;6.38;;
12593;SDS011;6362;50.208;9.182;2024-01-07T05:24:36;12.15;;;7.03;;
12593;SDS011;6362;50.208;9.182;2024-01-07T05:27:02;11.20;;;7.05;;
12593;SDS011;6362;50.208;9.182;2024-01-07T05:29:28;11.77;;;6.80;;
12593;SDS011;6362;50.208;9.182;2024-01-07T05:31:53;12.27;;;6.65;;
12593;SDS011;6362;50.208;9.182;2024-01-07T05:34:19;12.45;;;6.10;;
12593;SDS011;6362;50.208;9.182;2024-01-07T05:36:44;13.20;;;6.30;;
12593;SDS011;6362;50.208;9.182;2024-01-07T05:39:10;10.95;;;5.95;;
12593;SDS011;6362;50.208;9.182;2024-01-07T05:41:36;11.65;;;7.10;;
12593;SDS011;6362;50.208;9.182;2024-01-07T05:44:02;9.93;;;5.93;;
12593;SDS011;6362;50.208;9.182;2024-01-07T05:46:28;10.25;;;5.82;;
12593;SDS011;6362;50.208;9.182;2024-01-07T05:48:53;13.77;;;6.15;;
12593;SDS011;6362;50.208;9.182;2024-01-07T05:51:19;11.88;;;6.28;;
12593;SDS011;6362;50.208;9.182;2024-01-07T05:53:44;11.48;;;6.30;;
12593;SDS011;6362;50.208;9.182;2024-01-07T05:56:11;10.98;;;5.72;;
12593;SDS011;6362;50.208;9.182;2024-01-07T05:58:37;10.73;;;5.65;;
12593;SDS011;6362;50.208;9.182;2024-01-07T06:01:02;11.02;;;6.07;;
12593;SDS011;6362;50.208;9.182;2024-01-07T06:03:28;11.23;;;6.47;;
12593;SDS011;6362;50.208;9.182;2024-01-07T06:05:53;11.30;;;6.05;;
12593;SDS011;6362;50.208;9.182;2024-01-07T06:08:19;10.57;;;6.05;;
12593;SDS011;6362;50.208;9.182;2024-01-07T06:10:44;9.85;;;5.80;;
12593;SDS011;6362;50.208;9.182;2024-01-07T06:13:10;11.18;;;6.43;;
12593;SDS011;6362;50.208;9.182;2024-01-07T06:15:35;10.93;;;6.07;;
12593;SDS011;6362;50.208;9.182;2024-01-07T06:18:01;9.98;;;5.43;;
12593;SDS011;6362;50.208;9.182;2024-01-07T06:20:26;9.15;;;5.88;;
12593;SDS011;6362;50.208;9.182;2024-01-07T06:22:52;11.02;;;5.68;;
12593;SDS011;6362;50.208;9.182;2024-01-07T06:25:17;11.55;;;6.00;;
12593;SDS011;6362;50.208;9.182;2024-01-07T06:27:43;8.70;;;5.43;;
12593;SDS011;6362;50.208;9.182;2024-01-07T06:30:08;10.98;;;5.65;;
12593;SDS011;6362;50.208;9.182;2024-01-07T06:32:34;9.80;;;5.50;;
12593;SDS011;6362;50.208;9.182;2024-01-07T06:35:00;9.55;;;5.28;;
12593;SDS011;6362;50.208;9.182;2024-01-07T06:37:26;9.35;;;5.00;;
12593;SDS011;6362;50.208;9.182;2024-01-07T06:39:54;10.25;;;5.50;;
12593;SDS011;6362;50.208;9.182;2024-01-07T06:42:20;8.57;;;5.18;;
12593;SDS011;6362;50.208;9.182;2024-01-07T06:44:45;10.90;;;6.45;;
12593;SDS011;6362;50.208;9.182;2024-01-07T06:47:11;10.15;;;5.65;;
12593;SDS011;6362;50.208;9.182;2024-01-07T06:49:36;11.85;;;6.38;;
12593;SDS011;6362;50.208;9.182;2024-01-07T06:52:02;13.88;;;6.65;;
12593;SDS011;6362;50.208;9.182;2024-01-07T06:54:27;9.68;;;6.05;;
12593;SDS011;6362;50.208;9.182;2024-01-07T06:56:53;11.02;;;6.40;;
12593;SDS011;6362;50.208;9.182;2024-01-07T06:59:18;11.77;;;6.35;;
12593;SDS011;6362;50.208;9.182;2024-01-07T07:01:44;9.32;;;5.60;;
12593;SDS011;6362;50.208;9.182;2024-01-07T07:04:09;8.13;;;5.40;;
12593;SDS011;6362;50.208;9.182;2024-01-07T07:06:35;8.98;;;5.88;;
12593;SDS011;6362;50.208;9.182;2024-01-07T07:09:00;9.98;;;5.10;;
12593;SDS011;6362;50.208;9.182;2024-01-07T07:11:26;10.50;;;5.78;;
12593;SDS011;6362;50.208;9.182;2024-01-07T07:13:51;8.48;;;5.57;;
12593;SDS011;6362;50.208;9.182;2024-01-07T07:16:17;9.35;;;5.10;;
12593;SDS011;6362;50.208;9.182;2024-01-07T07:18:42;9.25;;;5.57;;
12593;SDS011;6362;50.208;9.182;2024-01-07T07:21:07;9.90;;;5.57;;
12593;SDS011;6362;50.208;9.182;2024-01-07T07:23:33;8.45;;;5.40;;
12593;SDS011;6362;50.208;9.182;2024-01-07T07:25:58;9.20;;;5.47;;
12593;SDS011;6362;50.208;9.182;2024-01-07T07:28:24;11.32;;;5.97;;
12593;SDS011;6362;50.208;9.182;2024-01-07T07:30:49;10.43;;;6.15;;
12593;SDS011;6362;50.208;9.182;2024-01-07T07:33:15;10.43;;;5.47;;
12593;SDS011;6362;50.208;9.182;2024-01-07T07:35:40;8.68;;;5.45;;
12593;SDS011;6362;50.208;9.182;2024-01-07T07:38:07;9.25;;;5.57;;
12593;SDS011;6362;50.208;9.182;2024-01-07T07:40:32;8.32;;;5.35;;
12593;SDS011;6362;50.208;9.182;2024-01-07T07:42:58;8.88;;;5.68;;
12593;SDS011;6362;50.208;9.182;2024-01-07T07:45:23;9.13;;;5.30;;
12593;SDS011;6362;50.208;9.182;2024-01-07T07:47:49;8.00;;;5.47;;
12593;SDS011;6362;50.208;9.182;2024-01-07T07:50:14;9.07;;;4.93;;
12593;SDS011;6362;50.208;9.182;2024-01-07T07:52:43;7.85;;;5.20;;
12593;SDS011;6362;50.208;9.182;2024-01-07T07:55:09;6.38;;;4.28;;
12593;SDS011;6362;50.208;9.182;2024-01-07T07:57:34;6.63;;;5.00;;
12593;SDS011;6362;50.208;9.182;2024-01-07T08:00:00;5.65;;;4.38;;
12593;SDS011;6362;50.208;9.182;2024-01-07T08:02:26;6.88;;;4.32;;
12593;SDS011;6362;50.208;9.182;2024-01-07T08:04:52;5.68;;;3.88;;
12593;SDS011;6362;50.208;9.182;2024-01-07T08:07:17;6.53;;;4.10;;
12593;SDS011;6362;50.208;9.182;2024-01-07T08:09:43;5.85;;;4.22;;
12593;SDS011;6362;50.208;9.182;2024-01-07T08:12:08;6.82;;;3.95;;
12593;SDS011;6362;50.208;9.182;2024-01-07T08:14:34;6.60;;;4.30;;
12593;SDS011;6362;50.208;9.182;2024-01-07T08:17:00;6.25;;;3.92;;
12593;SDS011;6362;50.208;9.182;2024-01-07T08:19:26;7.57;;;4.78;;
12593;SDS011;6362;50.208;9.182;2024-01-07T08:21:51;5.38;;;3.80;;
12593;SDS011;6362;50.208;9.182;2024-01-07T08:24:18;6.63;;;4.43;;
12593;SDS011;6362;50.208;9.182;2024-01-07T08:26:43;8.60;;;4.70;;
12593;SDS011;6362;50.208;9.182;2024-01-07T08:29:09;6.75;;;4.10;;
12593;SDS011;6362;50.208;9.182;2024-01-07T08:31:34;7.75;;;4.25;;
12593;SDS011;6362;50.208;9.182;2024-01-07T08:34:00;6.95;;;4.65;;
12593;SDS011;6362;50.208;9.182;2024-01-07T08:36:25;6.57;;;4.78;;
12593;SDS011;6362;50.208;9.182;2024-01-07T08:38:51;7.18;;;5.10;;
12593;SDS011;6362;50.208;9.182;2024-01-07T08:41:17;6.43;;;4.45;;
12593;SDS011;6362;50.208;9.182;2024-01-07T08:43:43;7.68;;;4.85;;
12593;SDS011;6362;50.208;9.182;2024-01-07T08:46:10;9.40;;;4.95;;
12593;SDS011;6362;50.208;9.182;2024-01-07T08:48:35;8.93;;;4.32;;
12593;SDS011;6362;50.208;9.182;2024-01-07T08:51:01;8.40;;;5.10;;
12593;SDS011;6362;50.208;9.182;2024-01-07T08:56:48;6.10;;;4.32;;
12593;SDS011;6362;50.208;9.182;2024-01-07T08:59:14;7.55;;;4.75;;
12593;SDS011;6362;50.208;9.182;2024-01-07T09:01:39;9.48;;;5.05;;
12593;SDS011;6362;50.208;9.182;2024-01-07T09:04:05;8.35;;;4.72;;
12593;SDS011;6362;50.208;9.182;2024-01-07T09:06:30;7.07;;;4.78;;
12593;SDS011;6362;50.208;9.182;2024-01-07T09:08:57;7.90;;;5.15;;
12593;SDS011;6362;50.208;9.182;2024-01-07T09:11:22;7.82;;;4.90;;
12593;SDS011;6362;50.208;9.182;2024-01-07T09:13:48;8.57;;;4.28;;
12593;SDS011;6362;50.208;9.182;2024-01-07T09:16:15;8.63;;;5.55;;
12593;SDS011;6362;50.208;9.182;2024-01-07T09:18:41;7.57;;;5.38;;
12593;SDS011;6362;50.208;9.182;2024-01-07T09:21:09;7.78;;;4.93;;
12593;SDS011;6362;50.208;9.182;2024-01-07T09:23:34;6.15;;;4.28;;
12593;SDS011;6362;50.208;9.182;2024-01-07T09:26:01;8.43;;;4.75;;
12593;SDS011;6362;50.208;9.182;2024-01-07T09:28:27;7.30;;;4.38;;
12593;SDS011;6362;50.208;9.182;2024-01-07T09:30:52;7.85;;;5.13;;
12593;SDS011;6362;50.208;9.182;2024-01-07T09:33:18;10.02;;;4.78;;
12593;SDS011;6362;50.208;9.182;2024-01-07T09:35:44;8.82;;;5.28;;
12593;SDS011;6362;50.208;9.182;2024-01-07T09:38:10;7.32;;;4.68;;
12593;SDS011;6362;50.208;9.182;2024-01-07T09:40:35;11.40;;;5.57;;
12593;SDS011;6362;50.208;9.182;2024-01-07T09:43:03;7.13;;;4.65;;
12593;SDS011;6362;50.208;9.182;2024-01-07T09:45:29;8.55;;;5.50;;
12593;SDS011;6362;50.208;9.182;2024-01-07T09:47:55;9.38;;;4.35;;
12593;SDS011;6362;50.208;9.182;2024-01-07T09:50:21;9.10;;;5.47;;
12593;SDS011;6362;50.208;9.182;2024-01-07T09:52:47;7.70;;;5.53;;
12593;SDS011;6362;50.208;9.182;2024-01-07T09:55:16;9.35;;;4.70;;
12593;SDS011;6362;50.208;9.182;2024-01-07T09:57:53;6.55;;;4.47;;
12593;SDS011;6362;50.208;9.182;2024-01-07T10:00:19;8.40;;;4.75;;
12593;SDS011;6362;50.208;9.182;2024-01-07T10:02:45;8.02;;;4.88;;
12593;SDS011;6362;50.208;9.182;2024-01-07T10:05:10;8.23;;;5.40;;
12593;SDS011;6362;50.208;9.182;2024-01-07T10:07:36;7.80;;;4.40;;
12593;SDS011;6362;50.208;9.182;2024-01-07T10:10:22;8.55;;;5.18;;
12593;SDS011;6362;50.208;9.182;2024-01-07T10:12:47;8.65;;;4.60;;
12593;SDS011;6362;50.208;9.182;2024-01-07T10:15:14;8.50;;;4.72;;
12593;SDS011;6362;50.208;9.182;2024-01-07T10:17:41;8.77;;;4.85;;
12593;SDS011;6362;50.208;9.182;2024-01-07T10:20:07;8.13;;;4.90;;
12593;SDS011;6362;50.208;9.182;2024-01-07T10:22:35;7.97;;;4.32;;
12593;SDS011;6362;50.208;9.182;2024-01-07T10:25:02;8.05;;;4.85;;
12593;SDS011;6362;50.208;9.182;2024-01-07T10:27:27;7.57;;;4.60;;
12593;SDS011;6362;50.208;9.182;2024-01-07T10:29:53;9.18;;;5.10;;
12593;SDS011;6362;50.208;9.182;2024-01-07T10:32:20;9.35;;;5.13;;
12593;SDS011;6362;50.208;9.182;2024-01-07T10:34:46;9.57;;;5.38;;
12593;SDS011;6362;50.208;9.182;2024-01-07T10:37:15;9.02;;;5.50;;
12593;SDS011;6362;50.208;9.182;2024-01-07T10:39:40;8.98;;;5.40;;
12593;SDS011;6362;50.208;9.182;2024-01-07T10:42:06;9.65;;;5.20;;
12593;SDS011;6362;50.208;9.182;2024-01-07T10:44:32;8.43;;;4.85;;
12593;SDS011;6362;50.208;9.182;2024-01-07T10:46:58;6.20;;;4.47;;
12593;SDS011;6362;50.208;9.182;2024-01-07T10:49:25;7.40;;;3.95;;
12593;SDS011;6362;50.208;9.182;2024-01-07T10:54:28;6.70;;;4.70;;
12593;SDS011;6362;50.208;9.182;2024-01-07T10:56:55;7.50;;;4.32;;
12593;SDS011;6362;50.208;9.182;2024-01-07T10:59:23;9.07;;;5.30;;
12593;SDS011;6362;50.208;9.182;2024-01-07T11:01:51;6.20;;;4.63;;
12593;SDS011;6362;50.208;9.182;2024-01-07T11:04:41;8.13;;;4.55;;
12593;SDS011;6362;50.208;9.182;2024-01-07T11:07:18;6.78;;;3.78;;
12593;SDS011;6362;50.208;9.182;2024-01-07T11:12:21;7.47;;;4.38;;
12593;SDS011;6362;50.208;9.182;2024-01-07T11:14:47;6.20;;;4.07;;
12593;SDS011;6362;50.208;9.182;2024-01-07T11:20:02;9.75;;;4.55;;
12593;SDS011;6362;50.208;9.182;2024-01-07T11:22:30;11.25;;;5.38;;
12593;SDS011;6362;50.208;9.182;2024-01-07T11:24:56;7.07;;;4.20;;
12593;SDS011;6362;50.208;9.182;2024-01-07T11:27:23;12.05;;;4.78;;
12593;SDS011;6362;50.208;9.182;2024-01-07T11:29:53;7.68;;;4.47;;
12593;SDS011;6362;50.208;9.182;2024-01-07T11:32:22;8.77;;;4.70;;
12593;SDS011;6362;50.208;9.182;2024-01-07T11:34:50;7.90;;;4.55;;
12593;SDS011;6362;50.208;9.182;2024-01-07T11:37:18;7.25;;;4.90;;
12593;SDS011;6362;50.208;9.182;2024-01-07T11:39:44;9.43;;;4.93;;
12593;SDS011;6362;50.208;9.182;2024-01-07T11:42:10;7.10;;;4.50;;
12593;SDS011;6362;50.208;9.182;2024-01-07T11:44:49;7.07;;;4.63;;
12593;SDS011;6362;50.208;9.182;2024-01-07T11:47:16;8.45;;;5.35;;
12593;SDS011;6362;50.208;9.182;2024-01-07T11:49:43;10.23;;;4.88;;
12593;SDS011;6362;50.208;9.182;2024-01-07T11:52:09;10.00;;;5.97;;
12593;SDS011;6362;50.208;9.182;2024-01-07T11:54:40;9.48;;;5.50;;
12593;SDS011;6362;50.208;9.182;2024-01-07T11:57:07;10.80;;;5.47;;
12593;SDS011;6362;50.208;9.182;2024-01-07T11:59:33;9.70;;;4.93;;
12593;SDS011;6362;50.208;9.182;2024-01-07T12:02:03;9.98;;;5.10;;
12593;SDS011;6362;50.208;9.182;2024-01-07T12:04:31;7.30;;;4.43;;
12593;SDS011;6362;50.208;9.182;2024-01-07T12:06:57;7.45;;;4.45;;
12593;SDS011;6362;50.208;9.182;2024-01-07T12:09:24;8.05;;;4.63;;
12593;SDS011;6362;50.208;9.182;2024-01-07T12:11:50;10.52;;;5.20;;
12593;SDS011;6362;50.208;9.182;2024-01-07T12:14:16;9.10;;;4.90;;
12593;SDS011;6362;50.208;9.182;2024-01-07T12:16:42;8.27;;;5.45;;
12593;SDS011;6362;50.208;9.182;2024-01-07T12:19:08;8.73;;;4.97;;
12593;SDS011;6362;50.208;9.182;2024-01-07T12:21:35;9.13;;;4.47;;
12593;SDS011;6362;50.208;9.182;2024-01-07T12:24:00;8.27;;;5.45;;
12593;SDS011;6362;50.208;9.182;2024-01-07T12:26:27;12.35;;;5.30;;
12593;SDS011;6362;50.208;9.182;2024-01-07T12:28:57;8.50;;;5.05;;
12593;SDS011;6362;50.208;9.182;2024-01-07T12:31:32;8.82;;;5.50;;
12593;SDS011;6362;50.208;9.182;2024-01-07T12:33:58;8.27;;;4.88;;
12593;SDS011;6362;50.208;9.182;2024-01-07T12:36:25;8.52;;;4.88;;
12593;SDS011;6362;50.208;9.182;2024-01-07T12:38:51;7.95;;;4.28;;
12593;SDS011;6362;50.208;9.182;2024-01-07T12:41:21;7.18;;;4.22;;
12593;SDS011;6362;50.208;9.182;2024-01-07T12:43:47;8.73;;;5.05;;
12593;SDS011;6362;50.208;9.182;2024-01-07T12:46:13;11.13;;;5.15;;
12593;SDS011;6362;50.208;9.182;2024-01-07T12:48:39;8.60;;;4.30;;
12593;SDS011;6362;50.208;9.182;2024-01-07T12:51:05;7.30;;;4.18;;
12593;SDS011;6362;50.208;9.182;2024-01-07T12:53:30;6.78;;;3.75;;
12593;SDS011;6362;50.208;9.182;2024-01-07T12:55:56;7.97;;;4.28;;
12593;SDS011;6362;50.208;9.182;2024-01-07T12:58:21;8.13;;;4.50;;
12593;SDS011;6362;50.208;9.182;2024-01-07T13:00:47;6.00;;;3.67;;
12593;SDS011;6362;50.208;9.182;2024-01-07T13:03:12;6.15;;;3.97;;
12593;SDS011;6362;50.208;9.182;2024-01-07T13:05:44;6.43;;;3.95;;
12593;SDS011;6362;50.208;9.182;2024-01-07T13:08:13;6.82;;;4.38;;
12593;SDS011;6362;50.208;9.182;2024-01-07T13:10:39;9.70;;;4.47;;
12593;SDS011;6362;50.208;9.182;2024-01-07T13:13:04;8.57;;;4.15;;
12593;SDS011;6362;50.208;9.182;2024-01-07T13:15:30;6.07;;;3.92;;
12593;SDS011;6362;50.208;9.182;2024-01-07T13:17:56;8.80;;;4.03;;
12593;SDS011;6362;50.208;9.182;2024-01-07T13:20:22;4.95;;;3.47;;
12593;SDS011;6362;50.208;9.182;2024-01-07T13:22:47;6.03;;;3.28;;
12593;SDS011;6362;50.208;9.182;2024-01-07T13:25:13;5.30;;;3.38;;
12593;SDS011;6362;50.208;9.182;2024-01-07T13:27:39;5.72;;;4.13;;
12593;SDS011;6362;50.208;9.182;2024-01-07T13:30:04;5.93;;;3.67;;
12593;SDS011;6362;50.208;9.182;2024-01-07T13:32:31;6.47;;;3.15;;
12593;SDS011;6362;50.208;9.182;2024-01-07T13:35:01;6.38;;;3.40;;
12593;SDS011;6362;50.208;9.182;2024-01-07T13:37:30;4.05;;;2.92;;
12593;SDS011;6362;50.208;9.182;2024-01-07T13:39:58;4.63;;;2.85;;
12593;SDS011;6362;50.208;9.182;2024-01-07T13:42:23;3.58;;;2.90;;
12593;SDS011;6362;50.208;9.182;2024-01-07T13:44:49;5.15;;;2.97;;
12593;SDS011;6362;50.208;9.182;2024-01-07T13:47:14;4.10;;;2.97;;
12593;SDS011;6362;50.208;9.182;2024-01-07T13:49:41;4.50;;;2.75;;
12593;SDS011;6362;50.208;9.182;2024-01-07T13:52:07;4.68;;;2.85;;
12593;SDS011;6362;50.208;9.182;2024-01-07T13:54:32;2.95;;;2.17;;
12593;SDS011;6362;50.208;9.182;2024-01-07T13:56:58;5.38;;;3.00;;
12593;SDS011;6362;50.208;9.182;2024-01-07T13:59:24;3.10;;;2.20;;
12593;SDS011;6362;50.208;9.182;2024-01-07T14:01:51;2.25;;;1.88;;
12593;SDS011;6362;50.208;9.182;2024-01-07T14:04:16;6.10;;;2.78;;
12593;SDS011;6362;50.208;9.182;2024-01-07T14:06:42;3.58;;;2.22;;
12593;SDS011;6362;50.208;9.182;2024-01-07T14:09:09;5.05;;;2.63;;
12593;SDS011;6362;50.208;9.182;2024-01-07T14:11:34;4.38;;;2.00;;
12593;SDS011;6362;50.208;9.182;2024-01-07T14:14:01;4.20;;;2.08;;
12593;SDS011;6362;50.208;9.182;2024-01-07T14:16:27;1.88;;;1.70;;
12593;SDS011;6362;50.208;9.182;2024-01-07T14:18:53;3.72;;;2.03;;
12593;SDS011;6362;50.208;9.182;2024-01-07T14:21:19;2.97;;;1.95;;
12593;SDS011;6362;50.208;9.182;2024-01-07T14:23:44;3.80;;;2.10;;
12593;SDS011;6362;50.208;9.182;2024-01-07T14:26:10;2.53;;;2.08;;
12593;SDS011;6362;50.208;9.182;2024-01-07T14:28:36;3.35;;;1.65;;
12593;SDS011;6362;50.208;9.182;2024-01-07T14:31:01;3.60;;;1.95;;
12593;SDS011;6362;50.208;9.182;2024-01-07T14:33:28;2.75;;;1.70;;
12593;SDS011;6362;50.208;9.182;2024-01-07T14:35:54;7.43;;;3.85;;
12593;SDS011;6362;50.208;9.182;2024-01-07T14:38:19;4.53;;;2.30;;
12593;SDS011;6362;50.208;9.182;2024-01-07T14:40:45;2.83;;;1.92;;
12593;SDS011;6362;50.208;9.182;2024-01-07T14:43:11;4.10;;;2.08;;
12593;SDS011;6362;50.208;9.182;2024-01-07T14:45:37;3.72;;;1.75;;
12593;SDS011;6362;50.208;9.182;2024-01-07T14:48:03;2.30;;;1.70;;
12593;SDS011;6362;50.208;9.182;2024-01-07T14:50:29;5.20;;;1.52;;
12593;SDS011;6362;50.208;9.182;2024-01-07T14:52:54;2.72;;;1.58;;
12593;SDS011;6362;50.208;9.182;2024-01-07T14:55:20;1.70;;;1.20;;
12593;SDS011;6362;50.208;9.182;2024-01-07T14:57:45;3.25;;;1.38;;
12593;SDS011;6362;50.208;9.182;2024-01-07T15:00:11;3.47;;;1.77;;